Nautilus — P3QQ7 — position and weather

sailwx.info

Track history (hours):
 
Tides and Currents Weather Stations Pressure Air Temp Water Temp Dewpoint Dewpoint Depression Visibility Wind Speed Wind Dir Waves Ship Positions

Nautilus

Last reported at 2014-Dec-15 07:11 UTC. Time now 2014-Dec-19 06:35 UTC.
Position N 38°44' W 073°17'.

Length 176 m; draft 10.2 m.

Type: Tanker. MMSI: 212434000.

Date/timePositionNaut miles runAvg speedWind from/ knotsBaromVisibWave heightAir tempDewpointWater temp
2014-Dec-15 07:11N 38°44' W 073°17'1311.9
2014-Dec-15 06:07N 38°43' W 073°00'912.1
2014-Dec-15 05:23N 38°42' W 072°49'1112.0
2014-Dec-15 04:26N 38°41' W 072°35'1111.7
2014-Dec-15 03:30N 38°41' W 072°21'1111.6
2014-Dec-15 02:33N 38°40' W 072°07'2 2.3
2014-Dec-15 01:33N 38°40' W 072°10'1211.7
2014-Dec-15 00:33N 38°39' W 071°55'1211.6
2014-Dec-14 23:29N 38°38' W 071°39'1111.4
2014-Dec-14 22:33N 38°37' W 071°25'1211.6
2014-Dec-14 21:33N 38°36' W 071°10'1311.5
2014-Dec-14 20:27N 38°35' W 070°54'1111.4
2014-Dec-14 19:30N 38°35' W 070°41'1411.2
2014-Dec-14 18:17N 38°34' W 070°23'  
2014-Dec-07 11:33N 36°01' W 030°23'1212.1
2014-Dec-07 10:31N 36°01' W 030°07'1611.6
2014-Dec-07 09:09N 35°59' W 029°48'1911.3
2014-Dec-07 07:31N 35°58' W 029°25'1111.7
2014-Dec-07 06:32N 35°57' W 029°11'1511.6
2014-Dec-07 05:17N 35°56' W 028°53'912.0
2014-Dec-07 04:33N 35°55' W 028°42'1312.2
2014-Dec-07 03:29N 35°54' W 028°26'1212.2
2014-Dec-07 02:29N 35°53' W 028°11'13011.9
2014-Dec-06 15:33N 35°43' W 025°31'1111.5
2014-Dec-06 14:33N 35°42' W 025°17'1311.7
2014-Dec-06 13:27N 35°41' W 025°01'1111.8
2014-Dec-06 12:32N 35°41' W 024°48'  
Track history (hours):
 
Tides and Currents Weather Stations Pressure Air Temp Water Temp Dewpoint Dewpoint Depression Visibility Wind Speed Wind Dir Waves Ship Positions

Nautilus

Last reported at 2014-Dec-15 07:11 UTC. Time now 2014-Dec-19 06:35 UTC.
Position N 38°44' W 073°17'.

Length 176 m; draft 10.2 m.

Type: Tanker. MMSI: 212434000.

Date/timePositionNaut miles runAvg speedWind from/ knotsBaromVisibWave heightAir tempDewpointWater temp
2014-Dec-15 07:11N 38°44' W 073°17'1311.9
2014-Dec-15 06:07N 38°43' W 073°00'912.1
2014-Dec-15 05:23N 38°42' W 072°49'1112.0
2014-Dec-15 04:26N 38°41' W 072°35'1111.7
2014-Dec-15 03:30N 38°41' W 072°21'1111.6
2014-Dec-15 02:33N 38°40' W 072°07'2 2.3
2014-Dec-15 01:33N 38°40' W 072°10'1211.7
2014-Dec-15 00:33N 38°39' W 071°55'1211.6
2014-Dec-14 23:29N 38°38' W 071°39'1111.4
2014-Dec-14 22:33N 38°37' W 071°25'1211.6
2014-Dec-14 21:33N 38°36' W 071°10'1311.5
2014-Dec-14 20:27N 38°35' W 070°54'1111.4
2014-Dec-14 19:30N 38°35' W 070°41'1411.2
2014-Dec-14 18:17N 38°34' W 070°23'  
2014-Dec-07 11:33N 36°01' W 030°23'1212.1
2014-Dec-07 10:31N 36°01' W 030°07'1611.6
2014-Dec-07 09:09N 35°59' W 029°48'1911.3
2014-Dec-07 07:31N 35°58' W 029°25'1111.7
2014-Dec-07 06:32N 35°57' W 029°11'1511.6
2014-Dec-07 05:17N 35°56' W 028°53'912.0
2014-Dec-07 04:33N 35°55' W 028°42'1312.2
2014-Dec-07 03:29N 35°54' W 028°26'1212.2
2014-Dec-07 02:29N 35°53' W 028°11'13011.9
2014-Dec-06 15:33N 35°43' W 025°31'1111.5
2014-Dec-06 14:33N 35°42' W 025°17'1311.7
2014-Dec-06 13:27N 35°41' W 025°01'1111.8
2014-Dec-06 12:32N 35°41' W 024°48'  

Dump ship's entire track history